createdAt,value
2018-06-13T00:02:13.950Z,18.00
2018-06-13T00:04:42.309Z,18.10
2018-06-13T00:07:10.730Z,18.10
2018-06-13T00:09:39.077Z,18.10
2018-06-13T00:12:07.422Z,18.00
2018-06-13T00:14:35.780Z,18.00
2018-06-13T00:17:04.184Z,17.90
2018-06-13T00:19:32.550Z,17.90
2018-06-13T00:22:00.946Z,17.90
2018-06-13T00:24:29.485Z,18.00
2018-06-13T00:26:57.865Z,17.90
2018-06-13T00:29:26.265Z,17.80
2018-06-13T00:31:54.629Z,17.90
2018-06-13T00:34:22.997Z,18.00
2018-06-13T00:36:51.431Z,17.90
2018-06-13T00:39:19.761Z,17.80
2018-06-13T00:41:48.141Z,17.80
2018-06-13T00:44:16.526Z,17.90
2018-06-13T00:46:44.891Z,17.90
2018-06-13T00:49:13.297Z,17.90
2018-06-13T00:51:41.689Z,17.90
2018-06-13T00:54:10.065Z,17.90
2018-06-13T00:56:38.465Z,17.90
2018-06-13T00:59:06.830Z,17.80
2018-06-13T01:01:35.190Z,17.80
2018-06-13T01:04:03.616Z,17.90
2018-06-13T01:06:32.006Z,17.90
2018-06-13T01:09:00.402Z,17.90
2018-06-13T01:11:28.806Z,17.80
2018-06-13T01:13:57.183Z,17.80
2018-06-13T01:16:25.593Z,17.90
2018-06-13T01:18:54.374Z,17.90
2018-06-13T01:21:22.740Z,17.80
2018-06-13T01:23:51.149Z,17.70
2018-06-13T01:26:19.530Z,17.60
2018-06-13T01:28:47.922Z,17.70
2018-06-13T01:31:16.311Z,17.70
2018-06-13T01:33:44.662Z,17.70
2018-06-13T01:36:13.010Z,17.70
2018-06-13T01:38:41.376Z,17.60
2018-06-13T01:41:09.717Z,17.70
2018-06-13T01:43:38.071Z,17.70
2018-06-13T01:46:06.467Z,17.70
2018-06-13T01:51:02.864Z,17.70
2018-06-13T01:53:31.239Z,17.70
2018-06-13T01:55:59.582Z,17.70
2018-06-13T01:58:27.930Z,17.70
2018-06-13T02:00:56.299Z,17.60
2018-06-13T02:03:24.655Z,17.60
2018-06-13T02:05:53.023Z,17.60
2018-06-13T02:08:21.445Z,17.60
2018-06-13T02:10:49.790Z,17.60
2018-06-13T02:13:18.139Z,17.50
2018-06-13T02:15:46.500Z,17.60
2018-06-13T02:18:14.850Z,17.60
2018-06-13T02:20:43.181Z,17.60
2018-06-13T02:23:11.535Z,17.70
2018-06-13T02:25:39.860Z,17.50
2018-06-13T02:28:08.211Z,17.40
2018-06-13T02:30:36.537Z,17.40
2018-06-13T02:33:04.862Z,17.50
2018-06-13T02:35:33.216Z,17.50
2018-06-13T02:38:01.538Z,17.50
2018-06-13T02:40:29.850Z,17.50
2018-06-13T02:42:58.201Z,17.50
2018-06-13T02:45:26.540Z,17.50
2018-06-13T02:47:54.869Z,17.60
2018-06-13T02:50:23.246Z,17.50
2018-06-13T02:52:51.588Z,17.50
2018-06-13T02:55:19.926Z,17.50
2018-06-13T02:57:48.287Z,17.40
2018-06-13T03:00:16.615Z,17.40
2018-06-13T03:02:44.952Z,17.50
2018-06-13T03:05:13.294Z,17.50
2018-06-13T03:07:41.634Z,17.40
2018-06-13T03:10:09.962Z,17.40
2018-06-13T03:12:38.294Z,17.40
2018-06-13T03:15:06.623Z,17.40
2018-06-13T03:17:34.962Z,17.30
2018-06-13T03:20:03.386Z,17.40
2018-06-13T03:22:31.729Z,17.30
2018-06-13T03:25:00.104Z,17.30
2018-06-13T03:27:28.455Z,17.30
2018-06-13T03:29:56.820Z,17.30
2018-06-13T03:32:25.200Z,17.30
2018-06-13T03:34:53.559Z,17.30
2018-06-13T03:37:21.926Z,17.30
2018-06-13T03:39:50.261Z,17.30
2018-06-13T03:42:18.611Z,17.20
2018-06-13T03:44:46.997Z,17.20
2018-06-13T03:47:15.492Z,17.20
2018-06-13T03:49:43.866Z,17.30
2018-06-13T03:52:12.250Z,17.20
2018-06-13T03:54:40.600Z,17.10
2018-06-13T03:57:08.991Z,17.20
2018-06-13T03:59:37.329Z,17.20
2018-06-13T04:02:05.683Z,17.20
2018-06-13T04:04:34.062Z,17.30
2018-06-13T04:07:02.435Z,17.40
2018-06-13T04:09:30.790Z,17.40
2018-06-13T04:11:59.176Z,17.30
2018-06-13T04:14:27.514Z,17.20
2018-06-13T04:16:55.849Z,17.10
2018-06-13T04:19:24.217Z,17.20
2018-06-13T04:21:52.563Z,17.30
2018-06-13T04:24:20.905Z,17.20
2018-06-13T04:26:49.247Z,17.20
2018-06-13T04:29:17.584Z,17.30
2018-06-13T04:31:45.955Z,17.20
2018-06-13T04:34:14.295Z,17.20
2018-06-13T04:36:42.653Z,17.30
2018-06-13T04:39:11.006Z,17.30
2018-06-13T04:41:39.319Z,17.10
2018-06-13T04:44:07.639Z,17.10
2018-06-13T04:46:35.993Z,17.10
2018-06-13T04:49:04.314Z,17.00
2018-06-13T04:51:32.635Z,17.00
2018-06-13T04:54:00.978Z,16.80
2018-06-13T04:56:29.347Z,16.80
2018-06-13T04:58:57.670Z,16.90
2018-06-13T05:01:26.020Z,16.90
2018-06-13T05:03:54.350Z,16.90
2018-06-13T05:06:22.676Z,16.90
2018-06-13T05:08:51.013Z,16.90
2018-06-13T05:11:19.357Z,17.00
2018-06-13T05:13:47.691Z,17.00
2018-06-13T05:16:16.067Z,16.90
2018-06-13T05:18:44.425Z,16.80
2018-06-13T05:21:12.772Z,16.80
2018-06-13T05:23:41.158Z,16.90
2018-06-13T05:26:09.510Z,17.00
2018-06-13T05:28:37.900Z,17.20
2018-06-13T05:31:06.403Z,17.30
2018-06-13T05:33:34.742Z,17.30
2018-06-13T05:36:03.130Z,17.20
2018-06-13T05:38:31.506Z,17.30
2018-06-13T05:40:59.846Z,17.50
2018-06-13T05:43:28.202Z,17.50
2018-06-13T05:45:56.599Z,17.40
2018-06-13T05:48:24.959Z,17.40
2018-06-13T05:50:53.323Z,17.40
2018-06-13T05:53:21.706Z,17.50
2018-06-13T05:55:50.068Z,17.50
2018-06-13T06:00:46.543Z,17.50
2018-06-13T06:03:14.914Z,17.60
2018-06-13T06:05:43.275Z,17.50
2018-06-13T06:08:11.656Z,17.60
2018-06-13T06:10:40.014Z,17.60
2018-06-13T06:13:08.374Z,17.70
2018-06-13T06:15:36.765Z,17.70
2018-06-13T06:18:05.146Z,17.70
2018-06-13T06:20:33.515Z,17.80
2018-06-13T06:23:01.906Z,17.80
2018-06-13T06:25:30.340Z,17.80
2018-06-13T06:27:58.683Z,17.90
2018-06-13T06:30:27.072Z,17.90
2018-06-13T06:32:55.435Z,18.00
2018-06-13T06:35:23.804Z,18.00
2018-06-13T06:37:52.191Z,18.00
2018-06-13T06:40:20.556Z,18.00
2018-06-13T06:42:48.919Z,18.00
2018-06-13T06:45:17.312Z,18.00
2018-06-13T06:47:45.699Z,18.00
2018-06-13T06:50:14.066Z,17.90
2018-06-13T06:52:42.472Z,17.90
2018-06-13T06:55:10.858Z,17.80
2018-06-13T06:57:39.182Z,17.80
2018-06-13T07:00:07.596Z,17.90
2018-06-13T07:02:35.948Z,17.90
2018-06-13T07:05:04.376Z,18.00
2018-06-13T07:07:32.767Z,18.00
2018-06-13T07:10:01.135Z,18.10
2018-06-13T07:12:29.510Z,18.10
2018-06-13T07:14:57.877Z,18.10
2018-06-13T07:17:26.249Z,18.10
2018-06-13T07:19:54.615Z,17.90
2018-06-13T07:22:22.954Z,18.00
2018-06-13T07:24:51.367Z,18.00
2018-06-13T07:27:19.755Z,18.00
2018-06-13T07:29:48.117Z,18.00
2018-06-13T07:32:16.485Z,18.00
2018-06-13T07:34:44.867Z,18.00
2018-06-13T07:37:13.206Z,17.90
2018-06-13T07:39:41.547Z,17.90
2018-06-13T07:42:09.939Z,17.90
2018-06-13T07:44:38.304Z,17.80
2018-06-13T07:47:06.653Z,17.80
2018-06-13T07:49:35.030Z,17.90
2018-06-13T07:52:03.412Z,17.90
2018-06-13T07:54:31.761Z,17.90
2018-06-13T07:57:00.173Z,17.90
2018-06-13T07:59:28.521Z,17.90
2018-06-13T08:01:56.859Z,17.90
2018-06-13T08:04:25.248Z,17.90
2018-06-13T08:06:53.598Z,17.90
2018-06-13T08:09:21.950Z,18.00
2018-06-13T08:11:50.310Z,18.00
2018-06-13T08:14:18.699Z,18.00
2018-06-13T08:16:47.060Z,18.00
2018-06-13T08:19:15.449Z,18.00
2018-06-13T08:21:43.819Z,17.90
2018-06-13T08:24:12.194Z,17.90
2018-06-13T08:26:40.596Z,17.80
2018-06-13T08:29:08.963Z,17.80
2018-06-13T08:31:37.314Z,17.70
2018-06-13T08:34:05.711Z,17.70
2018-06-13T08:36:34.079Z,17.70
2018-06-13T08:39:02.467Z,17.60
2018-06-13T08:41:30.845Z,17.60
2018-06-13T08:43:59.202Z,17.60
2018-06-13T08:46:27.682Z,17.60
2018-06-13T08:48:56.053Z,17.60
2018-06-13T08:51:24.436Z,17.60
2018-06-13T08:53:52.906Z,17.60
2018-06-13T08:56:21.274Z,17.60
2018-06-13T08:58:49.612Z,17.60
2018-06-13T09:01:17.984Z,17.60
2018-06-13T09:03:46.333Z,17.60
2018-06-13T09:06:14.670Z,17.60
2018-06-13T09:08:43.067Z,17.60
2018-06-13T09:11:11.428Z,17.60
2018-06-13T09:13:39.774Z,17.60
2018-06-13T09:16:08.170Z,17.60
2018-06-13T09:18:36.520Z,17.70
2018-06-13T09:21:04.893Z,17.80
2018-06-13T09:26:01.329Z,17.80
2018-06-13T09:28:29.686Z,17.90
2018-06-13T09:30:58.078Z,17.90
2018-06-13T09:33:26.452Z,17.90
2018-06-13T09:35:54.796Z,17.90
2018-06-13T09:38:23.170Z,17.90
2018-06-13T09:40:51.520Z,17.90
2018-06-13T09:43:19.932Z,17.90
2018-06-13T09:45:48.312Z,17.80
2018-06-13T09:48:16.654Z,17.80
2018-06-13T09:50:44.998Z,17.70
2018-06-13T09:53:13.366Z,17.60
2018-06-13T09:55:41.715Z,17.60
2018-06-13T09:58:10.053Z,17.60
2018-06-13T10:03:12.202Z,17.90
2018-06-13T10:05:40.548Z,17.90
2018-06-13T10:08:08.922Z,17.90
2018-06-13T10:10:37.279Z,18.00
2018-06-13T10:13:05.635Z,18.10
2018-06-13T10:15:33.997Z,18.10
2018-06-13T10:18:02.347Z,18.20
2018-06-13T10:20:30.738Z,18.30
2018-06-13T10:22:59.103Z,18.20
2018-06-13T10:25:27.553Z,18.20
2018-06-13T10:27:55.919Z,18.20
2018-06-13T10:30:24.302Z,18.30
2018-06-13T10:32:52.684Z,18.20
2018-06-13T10:35:21.042Z,18.20
2018-06-13T10:37:49.392Z,18.10
2018-06-13T10:40:17.730Z,18.10
2018-06-13T10:42:46.106Z,18.10
2018-06-13T10:45:14.468Z,18.00
2018-06-13T10:47:42.839Z,18.10
2018-06-13T10:50:11.229Z,18.10
2018-06-13T10:52:39.575Z,18.10
2018-06-13T10:55:07.939Z,18.10
2018-06-13T10:57:36.324Z,18.10
2018-06-13T11:00:04.795Z,18.10
2018-06-13T11:02:33.146Z,18.10
2018-06-13T11:05:01.511Z,18.30
2018-06-13T11:07:29.887Z,18.40
2018-06-13T11:09:58.253Z,18.50
2018-06-13T11:12:26.652Z,18.60
2018-06-13T11:14:55.023Z,18.70
2018-06-13T11:17:23.403Z,18.70
2018-06-13T11:19:51.797Z,18.70
2018-06-13T11:22:20.157Z,18.60
2018-06-13T11:24:48.500Z,18.60
2018-06-13T11:27:16.865Z,18.50
2018-06-13T11:29:45.202Z,18.50
2018-06-13T11:32:13.551Z,18.60
2018-06-13T11:34:41.881Z,18.50
2018-06-13T11:37:10.207Z,18.50
2018-06-13T11:39:38.555Z,18.40
2018-06-13T11:42:06.869Z,18.40
2018-06-13T11:44:35.186Z,18.40
2018-06-13T11:47:03.535Z,18.50
2018-06-13T11:49:31.859Z,18.50
2018-06-13T11:52:00.217Z,18.50
2018-06-13T11:54:28.582Z,18.50
2018-06-13T11:56:56.951Z,18.40
2018-06-13T11:59:25.282Z,18.50
2018-06-13T12:01:53.658Z,18.40
2018-06-13T12:04:22.003Z,18.40
2018-06-13T12:06:50.331Z,18.40
2018-06-13T12:09:18.695Z,18.40
2018-06-13T12:11:47.034Z,18.40
2018-06-13T12:14:15.359Z,18.40
2018-06-13T12:16:43.725Z,18.40
2018-06-13T12:19:12.059Z,18.40
2018-06-13T12:21:40.375Z,18.40
2018-06-13T12:24:08.718Z,18.30
2018-06-13T12:26:37.043Z,18.40
2018-06-13T12:29:05.463Z,18.40
2018-06-13T12:31:33.849Z,18.50
2018-06-13T12:34:02.214Z,18.50
2018-06-13T12:36:30.567Z,18.60
2018-06-13T12:38:58.939Z,18.60
2018-06-13T12:41:27.296Z,18.70
2018-06-13T12:43:55.662Z,18.70
2018-06-13T12:46:24.332Z,18.80
2018-06-13T12:48:52.730Z,18.80
2018-06-13T12:51:21.128Z,18.80
2018-06-13T12:53:49.562Z,18.80
2018-06-13T12:56:18.001Z,18.80
2018-06-13T12:58:46.478Z,18.80
2018-06-13T13:01:14.896Z,18.80
2018-06-13T13:03:43.308Z,18.80
2018-06-13T13:06:11.670Z,18.80
2018-06-13T13:11:08.119Z,18.80
2018-06-13T13:13:36.491Z,18.80
2018-06-13T13:16:04.965Z,18.80
2018-06-13T13:18:33.311Z,18.80
2018-06-13T13:21:01.684Z,18.80
2018-06-13T13:23:30.035Z,18.80
2018-06-13T13:25:58.412Z,18.80
2018-06-13T13:28:26.755Z,18.80
2018-06-13T13:30:55.113Z,18.80
2018-06-13T13:33:23.445Z,18.80
2018-06-13T13:35:51.790Z,18.80
2018-06-13T13:38:20.182Z,18.90
2018-06-13T13:40:48.572Z,18.90
2018-06-13T13:43:17.179Z,18.90
2018-06-13T13:45:45.716Z,19.00
2018-06-13T13:48:14.305Z,19.00
2018-06-13T13:50:42.696Z,19.00
2018-06-13T13:53:11.031Z,19.00
2018-06-13T13:55:39.350Z,18.90
2018-06-13T13:58:07.696Z,18.90
2018-06-13T14:00:36.014Z,18.90
2018-06-13T14:03:04.377Z,18.90
2018-06-13T14:05:32.707Z,18.90
2018-06-13T14:08:01.061Z,18.90
2018-06-13T14:10:29.390Z,18.90
2018-06-13T14:12:57.741Z,18.90
2018-06-13T14:15:26.276Z,18.90
2018-06-13T14:17:54.621Z,18.90
2018-06-13T14:20:22.946Z,18.80
2018-06-13T14:22:51.330Z,18.80
2018-06-13T14:25:19.686Z,18.90
2018-06-13T14:27:48.195Z,19.00
2018-06-13T14:30:16.650Z,19.00
2018-06-13T14:32:45.075Z,19.00
2018-06-13T14:35:13.511Z,19.00
2018-06-13T14:37:41.881Z,19.00
2018-06-13T14:40:10.250Z,19.00
2018-06-13T14:42:38.621Z,19.00
2018-06-13T14:45:07.004Z,18.90
2018-06-13T14:47:35.481Z,18.90
2018-06-13T14:50:03.906Z,18.90
2018-06-13T14:52:32.289Z,18.90
2018-06-13T14:55:00.643Z,18.90
2018-06-13T14:57:28.997Z,18.90
2018-06-13T14:59:57.465Z,18.90
2018-06-13T15:02:25.847Z,18.80
2018-06-13T15:04:54.234Z,18.70
2018-06-13T15:07:22.588Z,18.70
2018-06-13T15:09:50.995Z,18.70
2018-06-13T15:12:19.340Z,18.60
2018-06-13T15:14:47.969Z,18.60
2018-06-13T15:17:16.347Z,18.60
2018-06-13T15:19:44.727Z,18.60
2018-06-13T15:22:13.104Z,18.60
2018-06-13T15:24:41.462Z,18.60
2018-06-13T15:27:09.814Z,18.60
2018-06-13T15:29:38.278Z,18.60
2018-06-13T15:32:06.701Z,18.60
2018-06-13T15:34:35.078Z,18.60
2018-06-13T15:37:03.488Z,18.60
2018-06-13T15:39:31.863Z,18.60
2018-06-13T15:42:00.223Z,18.60
2018-06-13T15:44:28.618Z,18.60
2018-06-13T15:46:56.961Z,18.60
2018-06-13T15:49:25.322Z,18.60
2018-06-13T15:51:53.699Z,18.60
2018-06-13T15:54:22.054Z,18.60
2018-06-13T15:56:50.473Z,18.60
2018-06-13T15:59:18.821Z,18.60
2018-06-13T16:01:47.231Z,18.70
2018-06-13T16:04:15.611Z,18.80
2018-06-13T16:06:44.008Z,18.70
2018-06-13T16:09:12.406Z,18.70
2018-06-13T16:11:40.837Z,18.70
2018-06-13T16:14:09.283Z,18.70
2018-06-13T16:16:37.621Z,18.70
2018-06-13T16:19:06.018Z,18.70
2018-06-13T16:21:34.418Z,18.60
2018-06-13T16:24:02.788Z,18.60
2018-06-13T16:26:31.171Z,18.60
2018-06-13T16:28:59.562Z,18.60
2018-06-13T16:31:27.952Z,18.60
2018-06-13T16:33:56.301Z,18.60
2018-06-13T16:38:52.758Z,18.60
2018-06-13T16:41:21.150Z,18.60
2018-06-13T16:43:49.498Z,18.60
2018-06-13T16:46:17.870Z,18.60
2018-06-13T16:48:46.217Z,18.60
2018-06-13T16:51:25.919Z,18.60
2018-06-13T16:54:03.741Z,18.70
2018-06-13T16:56:32.127Z,18.70
2018-06-13T16:59:00.483Z,18.70
2018-06-13T17:01:28.847Z,18.60
2018-06-13T17:03:57.297Z,18.70
2018-06-13T17:06:25.654Z,18.70
2018-06-13T17:08:54.027Z,18.70
2018-06-13T17:11:22.385Z,18.70
2018-06-13T17:13:50.754Z,18.60
2018-06-13T17:16:19.110Z,18.70
2018-06-13T17:18:47.504Z,18.70
2018-06-13T17:21:15.846Z,18.70
2018-06-13T17:23:44.232Z,18.70
2018-06-13T17:26:12.585Z,18.70
2018-06-13T17:28:40.983Z,18.70
2018-06-13T17:31:09.333Z,18.70
2018-06-13T17:33:37.793Z,18.70
2018-06-13T17:36:06.134Z,18.70
2018-06-13T17:38:34.530Z,18.60
2018-06-13T17:41:02.901Z,18.60
2018-06-13T17:43:31.272Z,18.70
2018-06-13T17:45:59.643Z,18.70
2018-06-13T17:48:28.043Z,18.60
2018-06-13T17:50:56.397Z,18.60
2018-06-13T17:55:52.847Z,18.60
2018-06-13T17:58:21.191Z,18.60
2018-06-13T18:00:49.596Z,18.50
2018-06-13T18:03:17.937Z,18.40
2018-06-13T18:05:46.313Z,18.40
2018-06-13T18:08:14.691Z,18.50
2018-06-13T18:10:43.113Z,18.50
2018-06-13T18:13:11.473Z,18.40
2018-06-13T18:15:39.855Z,18.40
2018-06-13T18:18:08.247Z,18.30
2018-06-13T18:20:36.628Z,18.30
2018-06-13T18:23:04.994Z,18.30
2018-06-13T18:25:33.369Z,18.20
2018-06-13T18:28:01.778Z,18.20
2018-06-13T18:30:30.190Z,18.10
2018-06-13T18:32:58.551Z,18.20
2018-06-13T18:35:26.929Z,18.30
2018-06-13T18:37:55.477Z,18.30
2018-06-13T18:40:23.931Z,18.20
2018-06-13T18:42:52.332Z,18.20
2018-06-13T18:45:20.735Z,18.10
2018-06-13T18:47:49.085Z,18.10
2018-06-13T18:50:17.455Z,18.10
2018-06-13T18:52:45.832Z,18.10
2018-06-13T18:55:14.209Z,18.00
2018-06-13T18:57:42.661Z,17.90
2018-06-13T19:00:11.034Z,18.00
2018-06-13T19:02:39.394Z,18.00
2018-06-13T19:05:07.745Z,18.00
2018-06-13T19:07:36.122Z,18.10
2018-06-13T19:10:04.540Z,18.00
2018-06-13T19:12:32.927Z,18.00
2018-06-13T19:15:01.439Z,18.10
2018-06-13T19:17:29.934Z,18.10
2018-06-13T19:19:58.302Z,18.00
2018-06-13T19:22:26.702Z,17.90
2018-06-13T19:24:55.050Z,17.80
2018-06-13T19:27:23.463Z,17.80
2018-06-13T19:29:52.100Z,17.90
2018-06-13T19:32:21.486Z,17.80
2018-06-13T19:34:49.919Z,17.70
2018-06-13T19:37:18.366Z,17.70
2018-06-13T19:39:46.763Z,17.80
2018-06-13T19:42:15.210Z,17.70
2018-06-13T19:44:43.678Z,17.70
2018-06-13T19:47:17.401Z,17.70
2018-06-13T19:49:45.807Z,17.60
2018-06-13T19:52:14.186Z,17.60
2018-06-13T19:54:47.859Z,17.60
2018-06-13T19:57:16.235Z,17.50
2018-06-13T19:59:44.618Z,17.40
2018-06-13T20:02:12.993Z,17.40
2018-06-13T20:04:46.623Z,17.40
2018-06-13T20:09:43.118Z,17.40
2018-06-13T20:12:27.300Z,17.30
2018-06-13T20:16:03.839Z,17.30
2018-06-13T20:18:37.861Z,17.30
2018-06-13T20:21:06.870Z,17.20
2018-06-13T20:23:35.917Z,17.20
2018-06-13T20:26:09.659Z,17.20
2018-06-13T20:28:43.510Z,17.20
2018-06-13T20:31:17.325Z,17.30
2018-06-13T20:33:45.716Z,17.20
2018-06-13T20:36:14.150Z,17.20
2018-06-13T20:38:42.567Z,17.20
2018-06-13T20:41:11.036Z,17.20
2018-06-13T20:43:39.899Z,17.20
2018-06-13T20:46:08.304Z,17.20
2018-06-13T20:48:36.697Z,17.20
2018-06-13T20:51:05.230Z,17.30
2018-06-13T20:53:33.620Z,17.30
2018-06-13T20:56:02.375Z,17.20
2018-06-13T20:58:30.781Z,17.20
2018-06-13T21:00:59.215Z,17.20
2018-06-13T21:03:27.626Z,17.10
2018-06-13T21:05:56.038Z,17.10
2018-06-13T21:08:24.570Z,17.00
2018-06-13T21:10:53.127Z,17.00
2018-06-13T21:13:21.721Z,17.10
2018-06-13T21:15:50.403Z,17.00
2018-06-13T21:18:19.074Z,17.10
2018-06-13T21:20:47.682Z,17.10
2018-06-13T21:23:16.339Z,17.10
2018-06-13T21:25:44.772Z,17.10
2018-06-13T21:28:13.143Z,17.10
2018-06-13T21:30:41.503Z,17.10
2018-06-13T21:33:09.876Z,17.10
2018-06-13T21:35:38.261Z,17.00
2018-06-13T21:38:06.655Z,17.00
2018-06-13T21:40:35.020Z,17.00
2018-06-13T21:43:03.390Z,17.00
2018-06-13T21:45:31.743Z,17.00
2018-06-13T21:48:00.090Z,17.00
2018-06-13T21:50:28.461Z,17.00
2018-06-13T21:52:56.805Z,17.00
2018-06-13T21:55:25.179Z,17.00
2018-06-13T21:57:53.534Z,17.00
2018-06-13T22:00:21.982Z,17.00
2018-06-13T22:02:50.341Z,17.00
2018-06-13T22:05:18.727Z,16.90
2018-06-13T22:07:47.093Z,17.00
2018-06-13T22:10:15.475Z,17.00
2018-06-13T22:12:43.859Z,17.00
2018-06-13T22:15:24.653Z,17.00
2018-06-13T22:17:54.310Z,17.00
2018-06-13T22:20:22.682Z,17.00
2018-06-13T22:22:51.041Z,17.00
2018-06-13T22:25:19.457Z,17.00
2018-06-13T22:27:47.883Z,16.90
2018-06-13T22:30:16.594Z,16.90
2018-06-13T22:32:45.167Z,16.90
2018-06-13T22:35:13.539Z,16.80
2018-06-13T22:37:41.887Z,16.60
2018-06-13T22:40:10.253Z,16.60
2018-06-13T22:42:38.615Z,16.50
2018-06-13T22:45:06.989Z,16.40
2018-06-13T22:47:35.342Z,16.40
2018-06-13T22:50:03.802Z,16.20
2018-06-13T22:52:32.143Z,16.10
2018-06-13T22:55:00.499Z,16.10
2018-06-13T22:57:28.869Z,16.00
2018-06-13T22:59:57.210Z,16.10
2018-06-13T23:02:25.602Z,16.20
2018-06-13T23:04:53.950Z,16.20
2018-06-13T23:07:22.335Z,16.10
2018-06-13T23:09:50.678Z,16.10
2018-06-13T23:12:19.041Z,16.20
2018-06-13T23:14:47.386Z,16.20
2018-06-13T23:17:15.742Z,16.30
2018-06-13T23:19:44.110Z,16.40
2018-06-13T23:22:12.491Z,16.40
2018-06-13T23:24:40.843Z,16.40
2018-06-13T23:27:09.235Z,16.40
2018-06-13T23:29:37.583Z,16.30
2018-06-13T23:32:05.970Z,16.30
2018-06-13T23:34:34.309Z,16.30
2018-06-13T23:37:02.667Z,16.20
2018-06-13T23:39:31.012Z,16.30
2018-06-13T23:41:59.342Z,16.30
2018-06-13T23:44:27.693Z,16.30
2018-06-13T23:46:56.023Z,16.30
2018-06-13T23:49:24.362Z,16.20
2018-06-13T23:51:52.684Z,16.30
2018-06-13T23:54:21.026Z,16.20
2018-06-13T23:56:49.373Z,16.20
2018-06-13T23:59:17.711Z,16.20
